Time;durP1;ratioP1;P1;durP2;ratioP2;P2;SDS_P1;SDS_P2;PMS_P1;PMS_P2;Temp;Humidity;BMP_temperature;BMP_pressure;BME280_temperature;BME280_humidity;BME280_pressure;Samples;Min_cycle;Max_cycle;Signal;HPM_P1;HPM_P2
2021/11/20 00:01:48;;;;;;;1.63;1.30;;;;;;;;;;5053206;28;20025;-46
2021/11/20 00:04:14;;;;;;;1.42;1.00;;;;;;;;;;5052331;28;20033;-46
2021/11/20 00:06:42;;;;;;;1.52;1.17;;;;;;;;;;5055419;28;20021;-47
2021/11/20 00:09:10;;;;;;;1.83;1.13;;;;;;;;;;5049500;28;20096;-46
2021/11/20 00:11:37;;;;;;;1.67;1.30;;;;;;;;;;5050394;28;20104;-48
2021/11/20 00:14:04;;;;;;;1.60;1.10;;;;;;;;;;5049564;28;20029;-46
2021/11/20 00:16:32;;;;;;;1.27;1.00;;;;;;;;;;5050354;28;20127;-46
2021/11/20 00:18:59;;;;;;;1.30;1.02;;;;;;;;;;5031458;28;20075;-45
2021/11/20 00:21:30;;;;;;;1.65;1.25;;;;;;;;;;5043853;28;20017;-45
2021/11/20 00:23:58;;;;;;;2.45;1.30;;;;;;;;;;5051378;28;20025;-45
2021/11/20 00:26:31;;;;;;;1.92;1.23;;;;;;;;;;5052149;28;20036;-45
2021/11/20 00:31:25;;;;;;;1.85;1.25;;;;;;;;;;5060295;28;20032;-45
2021/11/20 00:33:57;;;;;;;3.03;1.20;;;;;;;;;;5071609;28;20047;-57
2021/11/20 00:36:23;;;;;;;1.75;1.40;;;;;;;;;;5071566;28;20040;-45
2021/11/20 00:38:49;;;;;;;1.90;1.35;;;;;;;;;;5071886;28;20527;-45
2021/11/20 00:41:17;;;;;;;1.50;1.15;;;;;;;;;;5063405;28;20079;-48
2021/11/20 00:43:45;;;;;;;1.45;1.10;;;;;;;;;;5072029;28;20032;-52
2021/11/20 00:46:11;;;;;;;1.67;1.00;;;;;;;;;;5070932;28;20020;-48
2021/11/20 00:48:37;;;;;;;1.52;1.20;;;;;;;;;;5071901;28;20091;-50
2021/11/20 00:51:06;;;;;;;1.95;1.38;;;;;;;;;;5070325;28;20355;-45
2021/11/20 00:53:32;;;;;;;1.50;1.30;;;;;;;;;;5071743;28;20039;-46
2021/11/20 00:55:58;;;;;;;1.85;1.27;;;;;;;;;;5069276;28;20041;-46
2021/11/20 00:58:25;;;;;;;1.50;1.15;;;;;;;;;;5071596;28;20032;-45
2021/11/20 01:00:54;;;;;;;1.52;1.38;;;;;;;;;;5071522;28;20074;-57
2021/11/20 01:03:21;;;;;;;2.28;1.00;;;;;;;;;;5070518;28;20039;-45
2021/11/20 01:05:47;;;;;;;2.08;1.40;;;;;;;;;;5071118;28;20024;-45
2021/11/20 01:08:15;;;;;;;2.40;1.17;;;;;;;;;;5070460;28;20590;-45
2021/11/20 01:10:43;;;;;;;1.88;1.55;;;;;;;;;;5071307;28;20059;-49
2021/11/20 01:13:10;;;;;;;1.88;1.30;;;;;;;;;;5061613;28;20591;-46
2021/11/20 01:15:38;;;;;;;1.88;1.25;;;;;;;;;;5071150;28;20025;-45
2021/11/20 01:18:04;;;;;;;2.20;1.40;;;;;;;;;;5070632;28;20024;-45
2021/11/20 01:20:30;;;;;;;2.03;1.40;;;;;;;;;;5071681;28;20025;-45
2021/11/20 01:22:57;;;;;;;1.58;1.33;;;;;;;;;;5057590;28;20159;-47
2021/11/20 01:25:25;;;;;;;2.42;1.23;;;;;;;;;;5065718;28;20066;-46
2021/11/20 01:27:51;;;;;;;1.20;1.05;;;;;;;;;;5071021;28;20025;-45
2021/11/20 01:30:17;;;;;;;2.15;1.70;;;;;;;;;;5070911;28;20052;-45
2021/11/20 01:32:44;;;;;;;1.55;1.25;;;;;;;;;;5064560;28;20114;-47
2021/11/20 01:35:10;;;;;;;1.52;1.35;;;;;;;;;;5067177;28;20044;-46
2021/11/20 01:37:38;;;;;;;1.55;1.38;;;;;;;;;;5071263;28;20024;-45
2021/11/20 01:40:12;;;;;;;2.00;1.27;;;;;;;;;;5070210;28;20032;-45
2021/11/20 01:42:39;;;;;;;1.95;1.45;;;;;;;;;;5071022;28;20036;-45
2021/11/20 01:45:17;;;;;;;2.33;1.38;;;;;;;;;;5069548;28;20024;-46
2021/11/20 01:48:17;;;;;;;1.70;1.30;;;;;;;;;;5070776;28;20116;-46
2021/11/20 01:50:44;;;;;;;1.63;1.38;;;;;;;;;;5037326;28;20033;-46
2021/11/20 01:53:14;;;;;;;1.33;1.15;;;;;;;;;;5070232;28;20039;-46
2021/11/20 01:55:45;;;;;;;2.13;1.33;;;;;;;;;;5070741;28;20029;-47
2021/11/20 01:58:27;;;;;;;2.97;1.57;;;;;;;;;;5070422;28;20109;-45
2021/11/20 02:00:59;;;;;;;;;;;;;;;;;;5070855;28;20035;-57
2021/11/20 02:03:31;;;;;;;1.20;1.10;;;;;;;;;;5070650;28;19916;-49
2021/11/20 02:06:15;;;;;;;1.38;1.13;;;;;;;;;;5070173;28;20025;-58
2021/11/20 02:09:00;;;;;;;1.90;1.20;;;;;;;;;;5063861;28;20029;-47
2021/11/20 02:11:30;;;;;;;1.80;1.10;;;;;;;;;;5051262;28;20058;-47
2021/11/20 02:13:58;;;;;;;1.38;1.23;;;;;;;;;;5050408;28;20048;-57
2021/11/20 02:16:28;;;;;;;1.83;1.13;;;;;;;;;;5064300;28;20037;-45
2021/11/20 02:19:01;;;;;;;1.90;1.42;;;;;;;;;;5056117;28;20047;-58
2021/11/20 02:21:36;;;;;;;2.08;1.25;;;;;;;;;;5053449;28;20167;-45
2021/11/20 02:24:02;;;;;;;1.45;1.30;;;;;;;;;;5053796;28;20496;-45
2021/11/20 02:26:28;;;;;;;1.55;1.10;;;;;;;;;;5054577;28;20033;-45
2021/11/20 02:29:05;;;;;;;1.70;1.25;;;;;;;;;;5053925;28;20532;-57
2021/11/20 02:31:31;;;;;;;2.33;1.33;;;;;;;;;;5063798;28;20025;-46
2021/11/20 02:33:58;;;;;;;1.88;1.33;;;;;;;;;;5073871;28;20021;-57
2021/11/20 02:36:24;;;;;;;1.20;1.05;;;;;;;;;;5074648;28;20102;-45
2021/11/20 02:39:01;;;;;;;1.52;1.25;;;;;;;;;;5074316;28;20052;-46
2021/11/20 02:41:28;;;;;;;2.50;1.50;;;;;;;;;;5074021;28;20028;-46
2021/11/20 02:43:57;;;;;;;1.85;1.40;;;;;;;;;;5073890;28;20094;-54
2021/11/20 02:46:26;;;;;;;2.08;1.67;;;;;;;;;;5073843;28;20032;-45
2021/11/20 02:48:52;;;;;;;1.52;1.13;;;;;;;;;;5074300;28;20031;-46
2021/11/20 02:51:26;;;;;;;1.52;1.20;;;;;;;;;;5072794;28;20032;-45
2021/11/20 02:54:19;;;;;;;2.80;1.35;;;;;;;;;;5073946;28;20028;-45
2021/11/20 02:57:08;;;;;;;1.75;1.65;;;;;;;;;;5071137;28;20040;-46
2021/11/20 02:59:35;;;;;;;2.42;2.05;;;;;;;;;;5065840;28;20047;-47
2021/11/20 03:02:01;;;;;;;1.45;1.10;;;;;;;;;;5072696;28;20032;-45
2021/11/20 03:04:27;;;;;;;3.10;1.20;;;;;;;;;;5073666;28;20028;-45
2021/11/20 03:06:55;;;;;;;1.85;1.27;;;;;;;;;;5073150;28;20428;-46
2021/11/20 03:09:23;;;;;;;2.45;1.52;;;;;;;;;;5073243;28;20024;-45
2021/11/20 03:11:49;;;;;;;2.05;1.40;;;;;;;;;;5073475;28;20024;-45
2021/11/20 03:14:16;;;;;;;1.67;1.20;;;;;;;;;;5072833;28;20040;-45
2021/11/20 03:16:44;;;;;;;2.08;1.40;;;;;;;;;;5073280;28;20028;-46
2021/11/20 03:19:10;;;;;;;1.52;1.17;;;;;;;;;;5072648;28;20032;-46
2021/11/20 03:21:37;;;;;;;1.60;1.30;;;;;;;;;;5071528;28;20363;-45
2021/11/20 03:24:05;;;;;;;2.08;1.52;;;;;;;;;;5052763;28;20048;-45
2021/11/20 03:26:31;;;;;;;1.67;1.30;;;;;;;;;;5058828;28;20093;-45
2021/11/20 03:29:03;;;;;;;1.80;1.33;;;;;;;;;;5072920;28;20044;-57
2021/11/20 03:31:29;;;;;;;1.50;1.20;;;;;;;;;;5073014;28;20457;-46
2021/11/20 03:33:55;;;;;;;2.05;1.30;;;;;;;;;;5073338;28;20029;-45
2021/11/20 03:36:22;;;;;;;1.92;1.40;;;;;;;;;;5071675;28;20090;-45
2021/11/20 03:38:48;;;;;;;1.40;1.17;;;;;;;;;;5071501;28;20082;-46
2021/11/20 03:41:15;;;;;;;1.23;1.13;;;;;;;;;;5054253;28;20501;-45
2021/11/20 03:43:41;;;;;;;2.65;1.50;;;;;;;;;;5068526;28;20115;-48
2021/11/20 03:46:07;;;;;;;1.38;1.27;;;;;;;;;;5071319;28;20626;-47
2021/11/20 03:48:33;;;;;;;1.42;1.10;;;;;;;;;;5073131;28;20033;-45
2021/11/20 03:51:01;;;;;;;1.98;1.55;;;;;;;;;;5072401;28;20416;-58
2021/11/20 03:53:27;;;;;;;1.92;1.33;;;;;;;;;;5072765;28;20079;-45
2021/11/20 03:55:53;;;;;;;2.45;1.70;;;;;;;;;;5063084;28;20036;-52
2021/11/20 03:58:20;;;;;;;2.17;1.40;;;;;;;;;;5071769;28;20074;-45
2021/11/20 04:01:12;;;;;;;1.38;1.17;;;;;;;;;;5072669;28;20418;-49
2021/11/20 04:03:39;;;;;;;1.60;1.10;;;;;;;;;;5032882;28;20073;-46
2021/11/20 04:06:12;;;;;;;1.55;1.45;;;;;;;;;;5071661;28;20056;-47
2021/11/20 04:08:38;;;;;;;1.63;1.40;;;;;;;;;;5065460;28;20017;-46
2021/11/20 04:11:05;;;;;;;1.60;1.35;;;;;;;;;;5051805;28;20029;-45
2021/11/20 04:13:31;;;;;;;1.70;1.30;;;;;;;;;;5052877;28;20417;-46
2021/11/20 04:15:57;;;;;;;1.90;1.30;;;;;;;;;;5052407;28;20029;-46
2021/11/20 04:18:23;;;;;;;1.77;1.30;;;;;;;;;;5051805;28;20029;-47
2021/11/20 04:20:49;;;;;;;2.13;1.33;;;;;;;;;;5051569;28;20021;-45
2021/11/20 04:23:16;;;;;;;1.45;1.13;;;;;;;;;;5051481;28;20037;-46
2021/11/20 04:25:43;;;;;;;1.67;1.23;;;;;;;;;;5052223;28;20057;-47
2021/11/20 04:28:09;;;;;;;1.67;1.40;;;;;;;;;;5051190;28;20474;-45
2021/11/20 04:30:36;;;;;;;2.08;1.52;;;;;;;;;;5053665;28;20382;-45
2021/11/20 04:33:02;;;;;;;1.75;1.50;;;;;;;;;;5071445;28;20424;-58
2021/11/20 04:35:29;;;;;;;1.38;1.20;;;;;;;;;;5071750;28;20490;-46
2021/11/20 04:37:55;;;;;;;1.90;1.40;;;;;;;;;;5071920;28;20020;-45
2021/11/20 04:40:21;;;;;;;2.40;1.60;;;;;;;;;;5065951;28;20029;-47
2021/11/20 04:42:47;;;;;;;1.58;1.20;;;;;;;;;;5067680;28;20033;-45
2021/11/20 04:45:15;;;;;;;1.95;1.48;;;;;;;;;;5054967;28;20032;-52
2021/11/20 04:47:41;;;;;;;2.47;1.52;;;;;;;;;;5035411;28;20506;-51
2021/11/20 04:50:09;;;;;;;3.13;1.25;;;;;;;;;;5046263;28;20112;-45
2021/11/20 04:52:36;;;;;;;2.63;1.38;;;;;;;;;;5037343;28;20060;-48
2021/11/20 04:55:05;;;;;;;1.60;1.35;;;;;;;;;;5039961;28;20033;-57
2021/11/20 04:57:31;;;;;;;1.63;1.35;;;;;;;;;;5038044;28;20029;-47
2021/11/20 04:59:57;;;;;;;1.58;1.45;;;;;;;;;;5044618;28;20025;-51
2021/11/20 05:02:23;;;;;;;2.17;1.55;;;;;;;;;;5050437;28;20820;-45
2021/11/20 05:04:49;;;;;;;1.83;1.38;;;;;;;;;;5051568;28;20079;-47
2021/11/20 05:07:16;;;;;;;1.73;1.60;;;;;;;;;;5032597;28;20032;-45
2021/11/20 05:09:42;;;;;;;2.25;1.48;;;;;;;;;;5038429;28;20459;-45
2021/11/20 05:12:09;;;;;;;1.50;1.23;;;;;;;;;;5037021;28;20104;-45
2021/11/20 05:14:36;;;;;;;1.80;1.42;;;;;;;;;;5045801;28;20486;-45
2021/11/20 05:17:05;;;;;;;1.88;1.58;;;;;;;;;;5049193;28;20081;-57
2021/11/20 05:19:32;;;;;;;1.90;1.40;;;;;;;;;;5071221;28;20108;-45
2021/11/20 05:21:58;;;;;;;3.72;1.75;;;;;;;;;;5066713;28;20095;-45
2021/11/20 05:24:24;;;;;;;1.83;1.30;;;;;;;;;;5050904;28;20973;-45
2021/11/20 05:26:53;;;;;;;1.90;1.48;;;;;;;;;;5059507;28;20028;-45
2021/11/20 05:32:05;;;;;;;1.52;1.33;;;;;;;;;;5069734;28;20421;-56
2021/11/20 05:34:31;;;;;;;1.80;1.50;;;;;;;;;;5071150;28;20049;-47
2021/11/20 05:36:57;;;;;;;1.50;1.23;;;;;;;;;;5071411;28;20096;-46
2021/11/20 05:39:24;;;;;;;1.70;1.38;;;;;;;;;;5070550;28;20028;-47
2021/11/20 05:41:52;;;;;;;1.70;1.23;;;;;;;;;;5070862;28;20048;-45
2021/11/20 05:44:18;;;;;;;2.75;1.30;;;;;;;;;;5070495;28;20033;-50
2021/11/20 05:46:44;;;;;;;1.60;1.35;;;;;;;;;;5070795;28;20100;-45
2021/11/20 05:49:10;;;;;;;1.73;1.42;;;;;;;;;;5061642;28;20044;-45
2021/11/20 05:51:37;;;;;;;1.52;1.42;;;;;;;;;;5075054;28;20505;-46
2021/11/20 05:54:06;;;;;;;1.42;1.30;;;;;;;;;;5074911;28;20064;-57
2021/11/20 05:56:33;;;;;;;3.28;1.45;;;;;;;;;;5074608;28;20029;-45
2021/11/20 05:58:59;;;;;;;1.58;1.25;;;;;;;;;;5074639;28;20024;-47
2021/11/20 06:01:25;;;;;;;1.58;1.38;;;;;;;;;;5073971;28;20489;-46
2021/11/20 06:03:51;;;;;;;2.35;1.65;;;;;;;;;;5074552;28;20036;-46
2021/11/20 06:06:18;;;;;;;1.20;1.10;;;;;;;;;;5073619;28;20389;-48
2021/11/20 06:08:44;;;;;;;1.60;1.50;;;;;;;;;;5065732;28;20025;-46
2021/11/20 06:11:11;;;;;;;2.17;1.40;;;;;;;;;;5053934;28;20028;-47
2021/11/20 06:13:38;;;;;;;1.63;1.23;;;;;;;;;;5054900;28;20021;-45
2021/11/20 06:16:05;;;;;;;1.45;1.20;;;;;;;;;;5053882;28;20393;-57
2021/11/20 06:18:31;;;;;;;1.70;1.30;;;;;;;;;;5054647;28;20036;-45
2021/11/20 06:20:58;;;;;;;1.38;1.20;;;;;;;;;;5054955;28;20025;-46
2021/11/20 06:23:25;;;;;;;1.63;1.30;;;;;;;;;;5053951;28;20047;-47
2021/11/20 06:25:51;;;;;;;1.83;1.27;;;;;;;;;;5054529;28;20017;-45
2021/11/20 06:28:17;;;;;;;1.58;1.25;;;;;;;;;;5054159;28;20053;-45
2021/11/20 06:30:44;;;;;;;1.48;1.27;;;;;;;;;;5057429;28;20031;-45
2021/11/20 06:33:10;;;;;;;1.70;1.23;;;;;;;;;;5056365;28;20028;-46
2021/11/20 06:35:36;;;;;;;1.85;1.15;;;;;;;;;;5054965;28;20094;-48
2021/11/20 06:38:08;;;;;;;2.40;1.10;;;;;;;;;;5053957;28;20025;-57
2021/11/20 06:40:35;;;;;;;;;;;;;;;;;;5054558;28;20036;-45
2021/11/20 06:43:03;;;;;;;1.90;1.63;;;;;;;;;;5056002;28;19927;-47
2021/11/20 06:45:31;;;;;;;1.95;1.27;;;;;;;;;;5052096;28;20025;-50
2021/11/20 06:47:58;;;;;;;1.55;1.38;;;;;;;;;;5054385;28;20497;-49
2021/11/20 06:50:25;;;;;;;1.70;1.50;;;;;;;;;;5053615;28;20028;-45
2021/11/20 06:52:51;;;;;;;2.38;1.60;;;;;;;;;;5053024;28;20032;-45
2021/11/20 06:55:18;;;;;;;2.17;1.40;;;;;;;;;;5054771;28;20033;-52
2021/11/20 07:00:28;;;;;;;1.50;1.20;;;;;;;;;;5054636;28;20040;-45
2021/11/20 07:02:59;;;;;;;2.17;1.40;;;;;;;;;;5052773;28;20055;-45
2021/11/20 07:05:26;;;;;;;1.23;1.10;;;;;;;;;;5049497;28;20017;-45
2021/11/20 07:07:53;;;;;;;1.33;0.98;;;;;;;;;;5056352;28;20466;-45
2021/11/20 07:10:22;;;;;;;1.27;1.17;;;;;;;;;;5054535;28;20323;-46
2021/11/20 07:12:49;;;;;;;2.03;1.40;;;;;;;;;;5050982;28;20029;-45
2021/11/20 07:15:15;;;;;;;1.77;1.20;;;;;;;;;;5053089;28;20104;-46
2021/11/20 07:17:41;;;;;;;1.55;1.23;;;;;;;;;;5053860;28;20025;-53
2021/11/20 07:20:08;;;;;;;1.98;1.30;;;;;;;;;;5055447;28;20024;-47
2021/11/20 07:22:34;;;;;;;2.65;1.15;;;;;;;;;;5056608;28;20044;-45
2021/11/20 07:25:01;;;;;;;1.88;1.15;;;;;;;;;;5053651;28;20029;-48
2021/11/20 07:27:27;;;;;;;2.35;1.13;;;;;;;;;;5053267;28;20048;-46
2021/11/20 07:29:53;;;;;;;1.90;1.40;;;;;;;;;;5055371;28;20509;-46
2021/11/20 07:32:19;;;;;;;1.40;1.30;;;;;;;;;;5052055;28;20554;-49
2021/11/20 07:34:45;;;;;;;3.28;1.30;;;;;;;;;;5051515;28;20099;-45
2021/11/20 07:37:17;;;;;;;2.33;1.20;;;;;;;;;;5053909;28;20028;-58
2021/11/20 07:39:43;;;;;;;;;;;;;;;;;;5049786;28;20382;-48
2021/11/20 07:42:09;;;;;;;2.58;1.17;;;;;;;;;;5055198;28;19912;-53
2021/11/20 07:44:35;;;;;;;2.25;1.55;;;;;;;;;;5054000;28;20017;-46
2021/11/20 07:47:01;;;;;;;2.85;1.30;;;;;;;;;;5053727;28;20110;-50
2021/11/20 07:49:27;;;;;;;1.50;1.10;;;;;;;;;;5055365;28;20036;-46
2021/11/20 07:51:53;;;;;;;2.22;1.30;;;;;;;;;;5054057;28;20055;-48
2021/11/20 07:54:19;;;;;;;2.85;1.40;;;;;;;;;;5051800;28;20350;-48
2021/11/20 07:56:46;;;;;;;2.67;0.90;;;;;;;;;;5053628;28;20021;-48
2021/11/20 07:59:15;;;;;;;6.63;1.50;;;;;;;;;;5054642;28;20029;-49
2021/11/20 08:01:42;;;;;;;5.18;1.90;;;;;;;;;;5053304;28;20028;-51
2021/11/20 08:04:08;;;;;;;1.50;1.27;;;;;;;;;;5056590;28;20040;-53
2021/11/20 08:06:35;;;;;;;3.65;1.23;;;;;;;;;;5052067;28;20025;-50
2021/11/20 08:09:03;;;;;;;3.10;1.42;;;;;;;;;;5051003;28;20029;-48
2021/11/20 08:11:31;;;;;;;3.67;1.88;;;;;;;;;;5050526;28;20032;-51
2021/11/20 08:13:57;;;;;;;1.85;1.38;;;;;;;;;;5051061;28;20021;-47
2021/11/20 08:16:23;;;;;;;3.38;1.45;;;;;;;;;;5051589;28;20025;-47
2021/11/20 08:18:49;;;;;;;1.95;1.00;;;;;;;;;;5050953;28;20025;-54
2021/11/20 08:21:15;;;;;;;1.98;1.40;;;;;;;;;;5049500;28;20017;-48
2021/11/20 08:23:42;;;;;;;2.05;1.10;;;;;;;;;;5050581;28;20104;-51
2021/11/20 08:26:08;;;;;;;2.22;1.23;;;;;;;;;;5050126;28;20029;-50
2021/11/20 08:28:36;;;;;;;2.35;1.90;;;;;;;;;;5050981;28;20021;-47
2021/11/20 08:31:02;;;;;;;4.50;1.27;;;;;;;;;;5052308;28;20031;-48
2021/11/20 08:33:28;;;;;;;2.70;1.20;;;;;;;;;;5050309;28;20021;-49
2021/11/20 08:35:55;;;;;;;1.73;1.23;;;;;;;;;;5052051;28;20132;-48
2021/11/20 08:38:22;;;;;;;1.88;1.00;;;;;;;;;;5048537;28;20017;-48
2021/11/20 08:40:49;;;;;;;1.52;1.15;;;;;;;;;;5050472;28;20025;-48
2021/11/20 08:43:16;;;;;;;2.35;1.42;;;;;;;;;;5049920;28;20032;-49
2021/11/20 08:45:45;;;;;;;1.90;1.17;;;;;;;;;;5053110;28;20024;-55
2021/11/20 08:48:16;;;;;;;3.45;1.75;;;;;;;;;;5049308;28;20027;-49
2021/11/20 08:50:43;;;;;;;2.05;1.40;;;;;;;;;;5052994;28;20370;-50
2021/11/20 08:53:09;;;;;;;2.08;1.27;;;;;;;;;;5050097;28;20817;-52
2021/11/20 08:55:36;;;;;;;2.65;1.95;;;;;;;;;;5051566;28;20025;-49
2021/11/20 08:58:02;;;;;;;3.55;1.52;;;;;;;;;;5051180;28;20048;-51
2021/11/20 09:00:28;;;;;;;1.98;1.27;;;;;;;;;;5054433;28;20029;-48
2021/11/20 09:03:01;;;;;;;6.55;1.67;;;;;;;;;;5052702;28;20033;-49
2021/11/20 09:05:37;;;;;;;1.77;1.23;;;;;;;;;;5051856;28;20154;-47
2021/11/20 09:08:10;;;;;;;1.63;1.20;;;;;;;;;;5049771;28;20029;-58
2021/11/20 09:10:36;;;;;;;1.88;1.20;;;;;;;;;;5047977;28;20378;-53
2021/11/20 09:13:12;;;;;;;1.38;1.05;;;;;;;;;;5054197;28;20029;-47
2021/11/20 09:15:51;;;;;;;1.77;1.20;;;;;;;;;;5054480;28;20045;-47
2021/11/20 09:18:17;;;;;;;2.42;1.02;;;;;;;;;;5069853;28;20036;-51
2021/11/20 09:20:43;;;;;;;5.32;1.42;;;;;;;;;;5070749;28;20032;-46
2021/11/20 09:23:11;;;;;;;4.65;1.30;;;;;;;;;;5068161;28;20036;-58
2021/11/20 09:25:37;;;;;;;2.30;1.90;;;;;;;;;;5073740;28;20381;-59
2021/11/20 09:28:07;;;;;;;10.73;2.63;;;;;;;;;;5074598;28;20032;-53
2021/11/20 09:30:35;;;;;;;4.35;1.38;;;;;;;;;;5074957;28;20029;-60
2021/11/20 09:33:01;;;;;;;3.13;1.02;;;;;;;;;;5074862;28;20036;-55
2021/11/20 09:35:27;;;;;;;6.10;1.40;;;;;;;;;;5074039;28;20511;-55
2021/11/20 09:37:53;;;;;;;2.13;1.48;;;;;;;;;;5068140;28;20470;-53
2021/11/20 09:40:19;;;;;;;4.30;1.23;;;;;;;;;;5054223;28;20040;-52
2021/11/20 09:42:48;;;;;;;4.03;1.67;;;;;;;;;;5073386;28;20119;-54
2021/11/20 09:45:16;;;;;;;3.60;1.40;;;;;;;;;;5074297;28;20497;-55
2021/11/20 09:47:57;;;;;;;4.82;1.35;;;;;;;;;;5074350;28;20119;-56
2021/11/20 09:50:32;;;;;;;2.40;1.25;;;;;;;;;;5073870;28;20109;-54
2021/11/20 09:52:59;;;;;;;1.63;1.05;;;;;;;;;;5074153;28;20024;-55
2021/11/20 09:55:29;;;;;;;1.58;0.90;;;;;;;;;;5074182;28;20473;-56
2021/11/20 09:57:58;;;;;;;1.75;1.20;;;;;;;;;;5073922;28;20029;-56
2021/11/20 10:00:27;;;;;;;2.88;1.15;;;;;;;;;;5073493;28;20036;-54
2021/11/20 10:02:54;;;;;;;1.48;1.05;;;;;;;;;;5074689;28;20029;-54
2021/11/20 10:05:29;;;;;;;1.88;1.20;;;;;;;;;;5063489;28;20048;-54
2021/11/20 10:08:04;;;;;;;3.83;1.55;;;;;;;;;;5054278;28;20017;-55
2021/11/20 10:10:39;;;;;;;1.83;1.30;;;;;;;;;;5054010;28;20017;-56
2021/11/20 10:13:17;;;;;;;1.45;1.15;;;;;;;;;;5054734;28;20025;-54
2021/11/20 10:16:03;;;;;;;2.60;1.23;;;;;;;;;;5054332;28;20040;-54
2021/11/20 10:18:51;;;;;;;1.10;0.98;;;;;;;;;;5053920;28;20017;-55
2021/11/20 10:21:27;;;;;;;1.80;1.00;;;;;;;;;;5053615;28;20497;-49
2021/11/20 10:24:02;;;;;;;2.35;1.20;;;;;;;;;;5034205;28;20391;-51
2021/11/20 10:26:44;;;;;;;4.30;1.55;;;;;;;;;;5033546;28;20459;-55
2021/11/20 10:29:10;;;;;;;;;;;;;;;;;;5034278;28;20493;-50
2021/11/20 10:31:45;;;;;;;1.73;1.15;;;;;;;;;;5054564;28;19905;-46
2021/11/20 10:34:21;;;;;;;1.17;1.02;;;;;;;;;;5076688;28;20032;-57
2021/11/20 10:36:50;;;;;;;4.03;1.27;;;;;;;;;;5074508;28;20554;-52
2021/11/20 10:39:26;;;;;;;2.70;1.20;;;;;;;;;;5056572;28;20497;-53
2021/11/20 10:41:58;;;;;;;3.17;1.23;;;;;;;;;;5067831;28;20079;-52
2021/11/20 10:44:24;;;;;;;1.38;1.13;;;;;;;;;;5073227;28;20047;-52
2021/11/20 10:46:50;;;;;;;7.13;1.27;;;;;;;;;;5073376;28;20381;-47
2021/11/20 10:49:19;;;;;;;2.58;1.15;;;;;;;;;;5067201;28;20024;-51
2021/11/20 10:51:49;;;;;;;4.60;1.33;;;;;;;;;;5072774;28;20029;-55
2021/11/20 10:54:33;;;;;;;1.65;0.98;;;;;;;;;;5071858;28;20028;-55
2021/11/20 10:57:17;;;;;;;1.77;1.10;;;;;;;;;;5073168;28;20129;-57
2021/11/20 10:59:46;;;;;;;2.35;0.90;;;;;;;;;;5068501;28;20109;-51
2021/11/20 11:02:31;;;;;;;1.50;0.98;;;;;;;;;;5060657;28;20033;-48
2021/11/20 11:04:57;;;;;;;2.03;1.35;;;;;;;;;;5064602;28;20032;-51
2021/11/20 11:07:29;;;;;;;1.08;0.85;;;;;;;;;;5060658;28;20036;-48
2021/11/20 11:09:56;;;;;;;;;;;;;;;;;;5062550;28;20108;-55
2021/11/20 11:12:37;;;;;;;5.38;1.00;;;;;;;;;;5051800;28;19916;-47
2021/11/20 11:15:09;;;;;;;1.37;1.00;;;;;;;;;;5038242;28;20029;-47
2021/11/20 11:17:38;;;;;;;1.52;1.00;;;;;;;;;;5046468;28;20301;-53
2021/11/20 11:20:10;;;;;;;2.20;1.20;;;;;;;;;;5050973;28;20104;-53
2021/11/20 11:22:39;;;;;;;2.72;0.93;;;;;;;;;;5046428;28;20135;-50
2021/11/20 11:25:12;;;;;;;2.08;1.08;;;;;;;;;;5049256;28;20481;-52
2021/11/20 11:27:51;;;;;;;1.75;1.00;;;;;;;;;;5040289;28;20055;-56
2021/11/20 11:30:17;;;;;;;3.00;1.15;;;;;;;;;;5036377;28;20712;-54
2021/11/20 11:32:45;;;;;;;2.00;1.00;;;;;;;;;;5063326;28;20508;-58
2021/11/20 11:35:28;;;;;;;2.83;0.90;;;;;;;;;;5052361;28;20057;-56
2021/11/20 11:38:15;;;;;;;1.20;1.02;;;;;;;;;;5049867;28;20025;-55
2021/11/20 11:40:46;;;;;;;2.25;1.25;;;;;;;;;;5041652;28;20116;-57
2021/11/20 11:43:13;;;;;;;;;;;;;;;;;;5035607;28;20548;-55
2021/11/20 11:45:39;;;;;;;1.00;0.80;;;;;;;;;;5052996;28;20380;-50
2021/11/20 11:48:17;;;;;;;1.30;0.90;;;;;;;;;;5071656;28;20041;-47
2021/11/20 11:51:02;;;;;;;2.47;0.90;;;;;;;;;;5072171;28;20036;-50
2021/11/20 11:53:32;;;;;;;1.88;0.93;;;;;;;;;;5071602;28;20029;-47
2021/11/20 11:55:59;;;;;;;2.42;1.58;;;;;;;;;;5057905;28;20383;-48
2021/11/20 11:58:30;;;;;;;2.20;1.08;;;;;;;;;;5071686;28;20024;-50
2021/11/20 12:00:58;;;;;;;3.95;1.45;;;;;;;;;;5071008;28;20025;-52
2021/11/20 12:03:25;;;;;;;1.85;1.10;;;;;;;;;;5071199;28;20037;-48
2021/11/20 12:06:07;;;;;;;1.77;1.23;;;;;;;;;;5071634;28;20025;-54
2021/11/20 12:08:36;;;;;;;1.33;0.90;;;;;;;;;;5055242;28;20044;-53
2021/11/20 12:11:09;;;;;;;3.30;1.70;;;;;;;;;;5051974;28;20136;-51
2021/11/20 12:13:43;;;;;;;4.05;1.10;;;;;;;;;;5051471;28;20029;-51
2021/11/20 12:16:30;;;;;;;1.40;0.90;;;;;;;;;;5052520;28;20017;-47
2021/11/20 12:19:11;;;;;;;1.08;0.88;;;;;;;;;;5052346;28;20033;-51
2021/11/20 12:21:59;;;;;;;1.20;0.80;;;;;;;;;;5063574;28;20020;-52
2021/11/20 12:24:25;;;;;;;2.08;1.33;;;;;;;;;;5051237;28;20029;-50
2021/11/20 12:26:57;;;;;;;2.72;1.17;;;;;;;;;;5051706;28;20059;-50
2021/11/20 12:29:26;;;;;;;2.35;0.90;;;;;;;;;;5051530;28;20078;-51
2021/11/20 12:31:55;;;;;;;1.30;0.70;;;;;;;;;;5064103;28;20021;-48
2021/11/20 12:34:39;;;;;;;2.88;1.02;;;;;;;;;;5070430;28;20037;-51
2021/11/20 12:37:11;;;;;;;1.33;1.02;;;;;;;;;;5072001;28;20025;-49
2021/11/20 12:39:56;;;;;;;1.48;1.00;;;;;;;;;;5067642;28;20024;-49
2021/11/20 12:42:22;;;;;;;1.83;1.08;;;;;;;;;;5067431;28;20044;-52
2021/11/20 12:45:05;;;;;;;2.03;1.10;;;;;;;;;;5070939;28;20430;-49
2021/11/20 12:47:46;;;;;;;2.28;0.82;;;;;;;;;;5070713;28;20031;-53
2021/11/20 12:50:30;;;;;;;1.38;1.05;;;;;;;;;;5071894;28;20047;-49
2021/11/20 12:53:02;;;;;;;2.25;0.82;;;;;;;;;;5071240;28;20102;-50
2021/11/20 12:55:38;;;;;;;1.60;0.82;;;;;;;;;;5059549;28;20533;-51
2021/11/20 12:58:11;;;;;;;1.65;0.95;;;;;;;;;;5071233;28;20119;-50
2021/11/20 13:00:38;;;;;;;1.65;1.20;;;;;;;;;;5070689;28;20035;-51
2021/11/20 13:03:04;;;;;;;1.75;0.75;;;;;;;;;;5064577;28;20039;-52
2021/11/20 13:05:40;;;;;;;2.00;1.23;;;;;;;;;;5064170;28;20032;-63
2021/11/20 13:08:07;;;;;;;2.40;1.58;;;;;;;;;;5066184;28;20017;-61
2021/11/20 13:10:36;;;;;;;2.30;1.15;;;;;;;;;;5066299;28;20044;-61
2021/11/20 13:13:24;;;;;;;1.40;0.90;;;;;;;;;;5050167;28;20025;-60
2021/11/20 13:15:58;;;;;;;1.88;1.38;;;;;;;;;;5054945;28;20025;-62
2021/11/20 13:18:27;;;;;;;2.00;1.23;;;;;;;;;;5049124;28;20040;-62
2021/11/20 13:20:59;;;;;;;1.30;1.00;;;;;;;;;;5050837;28;20360;-61
2021/11/20 13:23:25;;;;;;;;;;;;;;;;;;5062281;28;20037;-60
2021/11/20 13:26:00;;;;;;;2.10;1.02;;;;;;;;;;5070842;28;19908;-59
2021/11/20 13:28:30;;;;;;;1.45;1.27;;;;;;;;;;5053104;28;20486;-60
2021/11/20 13:30:59;;;;;;;3.50;1.15;;;;;;;;;;5055211;28;20044;-60
2021/11/20 13:33:25;;;;;;;1.05;0.80;;;;;;;;;;5058184;28;20020;-63
2021/11/20 13:35:51;;;;;;;8.18;1.27;;;;;;;;;;5056489;28;20474;-62
2021/11/20 13:38:18;;;;;;;1.23;1.00;;;;;;;;;;5049617;28;20048;-59
2021/11/20 13:40:49;;;;;;;2.83;1.20;;;;;;;;;;5051122;28;20040;-61
2021/11/20 13:43:22;;;;;;;2.00;0.80;;;;;;;;;;5050182;28;20645;-60
2021/11/20 13:45:50;;;;;;;1.35;1.00;;;;;;;;;;5053981;28;20082;-62
2021/11/20 13:48:20;;;;;;;2.47;1.20;;;;;;;;;;5070779;28;20017;-61
2021/11/20 13:50:46;;;;;;;1.75;1.02;;;;;;;;;;5069256;28;20397;-62
2021/11/20 13:53:20;;;;;;;3.78;2.10;;;;;;;;;;5070786;28;20025;-62
2021/11/20 13:55:47;;;;;;;3.35;1.77;;;;;;;;;;5058382;28;20082;-62
2021/11/20 13:58:26;;;;;;;4.95;1.92;;;;;;;;;;5060593;28;20024;-71
2021/11/20 14:00:53;;;;;;;5.30;2.08;;;;;;;;;;5053078;28;21650;-60
2021/11/20 14:03:20;;;;;;;2.30;1.60;;;;;;;;;;5050343;28;20041;-60
2021/11/20 14:05:46;;;;;;;2.22;1.45;;;;;;;;;;5051096;28;20016;-63
2021/11/20 14:08:17;;;;;;;2.42;1.90;;;;;;;;;;5051200;28;20021;-64
2021/11/20 14:10:45;;;;;;;4.93;1.90;;;;;;;;;;5049585;28;20017;-61
2021/11/20 14:13:18;;;;;;;5.00;1.83;;;;;;;;;;5053248;28;20036;-58
2021/11/20 14:15:44;;;;;;;2.90;1.88;;;;;;;;;;5053544;28;20029;-60
2021/11/20 14:18:10;;;;;;;1.65;1.48;;;;;;;;;;5053561;28;20029;-59
2021/11/20 14:20:40;;;;;;;3.30;1.70;;;;;;;;;;5056171;28;20017;-65
2021/11/20 14:23:10;;;;;;;5.07;1.73;;;;;;;;;;5052264;28;20470;-62
2021/11/20 14:25:37;;;;;;;4.45;1.80;;;;;;;;;;5050070;28;20029;-65
2021/11/20 14:28:03;;;;;;;2.53;1.85;;;;;;;;;;5053045;28;20021;-67
2021/11/20 14:30:37;;;;;;;3.03;1.50;;;;;;;;;;5053549;28;20021;-64
2021/11/20 14:33:04;;;;;;;3.40;1.73;;;;;;;;;;5051555;28;20071;-63
2021/11/20 14:35:30;;;;;;;1.60;1.40;;;;;;;;;;5052259;28;20060;-63
2021/11/20 14:38:00;;;;;;;3.58;1.45;;;;;;;;;;5053068;28;20478;-61
2021/11/20 14:40:26;;;;;;;2.00;1.35;;;;;;;;;;5052718;28;20140;-63
2021/11/20 14:42:52;;;;;;;3.58;1.88;;;;;;;;;;5053095;28;20603;-60
2021/11/20 14:45:23;;;;;;;5.25;1.80;;;;;;;;;;5054378;28;20489;-60
2021/11/20 14:47:50;;;;;;;3.05;1.80;;;;;;;;;;5052998;28;20036;-60
2021/11/20 14:50:30;;;;;;;2.60;1.70;;;;;;;;;;5051375;28;20087;-61
2021/11/20 14:53:02;;;;;;;5.72;1.20;;;;;;;;;;5054318;28;20035;-63
2021/11/20 14:55:33;;;;;;;1.95;1.50;;;;;;;;;;5052995;28;20045;-61
2021/11/20 14:57:59;;;;;;;3.30;2.08;;;;;;;;;;5050604;28;20420;-62
2021/11/20 15:00:25;;;;;;;2.20;1.27;;;;;;;;;;5051086;28;20029;-61
2021/11/20 15:02:51;;;;;;;2.78;1.50;;;;;;;;;;5057160;28;20033;-62
2021/11/20 15:05:20;;;;;;;2.42;1.77;;;;;;;;;;5055707;28;20466;-60
2021/11/20 15:07:46;;;;;;;2.47;1.58;;;;;;;;;;5054939;28;20102;-62